createdAt,value
2022-11-09T00:01:02.014Z,95.90
2022-11-09T00:03:28.446Z,96.14
2022-11-09T00:05:58.393Z,96.16
2022-11-09T00:08:24.989Z,95.97
2022-11-09T00:10:51.482Z,96.34
2022-11-09T00:13:18.306Z,96.77
2022-11-09T00:15:44.993Z,96.54
2022-11-09T00:18:11.408Z,96.18
2022-11-09T00:20:37.804Z,95.94
2022-11-09T00:23:04.201Z,96.02
2022-11-09T00:25:30.804Z,96.18
2022-11-09T00:27:57.182Z,96.54
2022-11-09T00:30:23.569Z,96.38
2022-11-09T00:32:49.939Z,96.19
2022-11-09T00:35:16.376Z,96.99
2022-11-09T00:37:42.878Z,97.56
2022-11-09T00:40:09.762Z,99.11
2022-11-09T00:42:36.141Z,99.24
2022-11-09T00:45:02.530Z,99.75
2022-11-09T00:47:28.898Z,100.00
2022-11-09T00:49:55.673Z,100.00
2022-11-09T00:52:22.024Z,100.00
2022-11-09T00:54:48.407Z,100.00
2022-11-09T00:57:14.782Z,100.00
2022-11-09T00:59:41.138Z,100.00
2022-11-09T01:02:07.519Z,100.00
2022-11-09T01:04:34.036Z,100.00
2022-11-09T01:07:00.448Z,100.00
2022-11-09T01:09:27.125Z,100.00
2022-11-09T01:11:53.857Z,100.00
2022-11-09T01:14:20.217Z,100.00
2022-11-09T01:16:46.585Z,100.00
2022-11-09T01:19:13.039Z,100.00
2022-11-09T01:21:39.470Z,100.00
2022-11-09T01:24:05.867Z,100.00
2022-11-09T01:26:33.809Z,100.00
2022-11-09T01:29:00.623Z,100.00
2022-11-09T01:31:27.255Z,100.00
2022-11-09T01:33:53.679Z,100.00
2022-11-09T01:36:22.707Z,100.00
2022-11-09T01:38:49.715Z,100.00
2022-11-09T01:41:17.848Z,100.00
2022-11-09T01:43:45.110Z,100.00
2022-11-09T01:46:22.915Z,100.00
2022-11-09T01:48:51.807Z,100.00
2022-11-09T01:51:23.956Z,100.00
2022-11-09T01:53:52.865Z,100.00
2022-11-09T01:56:19.787Z,100.00
2022-11-09T01:58:48.901Z,100.00
2022-11-09T02:01:16.276Z,100.00
2022-11-09T02:03:44.689Z,100.00
2022-11-09T02:06:12.544Z,100.00
2022-11-09T02:08:39.611Z,100.00
2022-11-09T02:11:10.153Z,100.00
2022-11-09T02:13:41.851Z,100.00
2022-11-09T02:16:09.288Z,100.00
2022-11-09T02:18:36.536Z,100.00
2022-11-09T02:21:03.001Z,100.00
2022-11-09T02:23:29.690Z,100.00
2022-11-09T02:25:58.850Z,100.00
2022-11-09T02:28:26.380Z,100.00
2022-11-09T02:30:54.304Z,100.00
2022-11-09T02:33:21.113Z,100.00
2022-11-09T02:35:47.819Z,100.00
2022-11-09T02:38:14.748Z,100.00
2022-11-09T02:40:43.155Z,100.00
2022-11-09T02:43:10.444Z,100.00
2022-11-09T02:45:37.201Z,100.00
2022-11-09T02:48:03.803Z,100.00
2022-11-09T02:50:30.172Z,100.00
2022-11-09T02:52:56.542Z,100.00
2022-11-09T02:55:22.959Z,100.00
2022-11-09T02:57:49.330Z,100.00
2022-11-09T03:00:15.909Z,100.00
2022-11-09T03:02:42.368Z,100.00
2022-11-09T03:05:08.878Z,100.00
2022-11-09T03:07:35.300Z,100.00
2022-11-09T03:10:01.733Z,100.00
2022-11-09T03:12:30.875Z,100.00
2022-11-09T03:14:58.115Z,100.00
2022-11-09T03:17:24.788Z,100.00
2022-11-09T03:19:51.202Z,100.00
2022-11-09T03:22:17.806Z,100.00
2022-11-09T03:24:44.251Z,100.00
2022-11-09T03:27:10.972Z,100.00
2022-11-09T03:29:37.525Z,100.00
2022-11-09T03:32:04.132Z,100.00
2022-11-09T03:34:30.574Z,100.00
2022-11-09T03:36:56.975Z,100.00
2022-11-09T03:39:23.847Z,100.00
2022-11-09T03:41:50.410Z,100.00
2022-11-09T03:44:16.874Z,100.00
2022-11-09T03:46:43.267Z,100.00
2022-11-09T03:49:09.693Z,100.00
2022-11-09T03:51:36.076Z,100.00
2022-11-09T03:54:02.523Z,100.00
2022-11-09T03:56:28.932Z,100.00
2022-11-09T03:58:55.339Z,100.00
2022-11-09T04:01:21.882Z,100.00
2022-11-09T04:03:48.339Z,100.00
2022-11-09T04:06:14.763Z,100.00
2022-11-09T04:08:41.123Z,100.00
2022-11-09T04:11:07.505Z,100.00
2022-11-09T04:13:33.870Z,100.00
2022-11-09T04:16:00.268Z,100.00
2022-11-09T04:18:26.643Z,100.00
2022-11-09T04:20:53.070Z,100.00
2022-11-09T04:23:19.783Z,100.00
2022-11-09T04:25:46.425Z,100.00
2022-11-09T04:28:13.112Z,100.00
2022-11-09T04:30:39.860Z,100.00
2022-11-09T04:33:06.266Z,100.00
2022-11-09T04:35:33.223Z,100.00
2022-11-09T04:38:01.396Z,100.00
2022-11-09T04:40:28.778Z,100.00
2022-11-09T04:42:55.465Z,100.00
2022-11-09T04:45:22.233Z,100.00
2022-11-09T04:47:48.882Z,100.00
2022-11-09T04:50:15.488Z,100.00
2022-11-09T04:52:41.951Z,100.00
2022-11-09T04:55:08.520Z,100.00
2022-11-09T04:57:34.894Z,100.00
2022-11-09T05:00:01.265Z,100.00
2022-11-09T05:02:27.666Z,100.00
2022-11-09T05:04:54.050Z,100.00
2022-11-09T05:07:20.447Z,100.00
2022-11-09T05:09:46.808Z,100.00
2022-11-09T05:12:13.394Z,100.00
2022-11-09T05:14:39.784Z,100.00
2022-11-09T05:17:06.780Z,100.00
2022-11-09T05:19:33.149Z,100.00
2022-11-09T05:22:19.504Z,100.00
2022-11-09T05:24:46.245Z,100.00
2022-11-09T05:27:12.631Z,100.00
2022-11-09T05:29:39.004Z,100.00
2022-11-09T05:32:05.615Z,100.00
2022-11-09T05:34:32.661Z,100.00
2022-11-09T05:37:03.325Z,100.00
2022-11-09T05:39:30.134Z,100.00
2022-11-09T05:41:56.495Z,100.00
2022-11-09T05:44:29.263Z,100.00
2022-11-09T05:46:55.625Z,100.00
2022-11-09T05:49:22.051Z,100.00
2022-11-09T05:51:48.436Z,100.00
2022-11-09T05:54:14.824Z,100.00
2022-11-09T05:56:41.179Z,100.00
2022-11-09T05:59:08.395Z,100.00
2022-11-09T06:01:34.775Z,100.00
2022-11-09T06:04:01.147Z,100.00
2022-11-09T06:06:27.562Z,100.00
2022-11-09T06:08:54.029Z,100.00
2022-11-09T06:11:23.936Z,100.00
2022-11-09T06:13:51.441Z,100.00
2022-11-09T06:16:17.919Z,100.00
2022-11-09T06:18:44.287Z,100.00
2022-11-09T06:21:11.104Z,100.00
2022-11-09T06:23:37.560Z,100.00
2022-11-09T06:26:09.189Z,100.00
2022-11-09T06:28:36.842Z,100.00
2022-11-09T06:31:04.438Z,100.00
2022-11-09T06:33:31.881Z,100.00
2022-11-09T06:35:58.672Z,100.00
2022-11-09T06:38:26.558Z,100.00
2022-11-09T06:40:56.856Z,100.00
2022-11-09T06:43:24.039Z,100.00
2022-11-09T06:45:51.129Z,100.00
2022-11-09T06:48:17.738Z,100.00
2022-11-09T06:50:44.217Z,100.00
2022-11-09T06:53:11.856Z,100.00
2022-11-09T06:55:38.272Z,100.00
2022-11-09T06:58:08.860Z,100.00
2022-11-09T07:00:35.722Z,100.00
2022-11-09T07:03:02.559Z,100.00
2022-11-09T07:05:28.950Z,100.00
2022-11-09T07:07:55.351Z,100.00
2022-11-09T07:10:21.746Z,100.00
2022-11-09T07:12:48.293Z,100.00
2022-11-09T07:15:14.716Z,100.00
2022-11-09T07:17:48.331Z,100.00
2022-11-09T07:20:15.136Z,100.00
2022-11-09T07:22:42.080Z,100.00
2022-11-09T07:25:13.682Z,100.00
2022-11-09T07:27:40.104Z,100.00
2022-11-09T07:30:06.839Z,100.00
2022-11-09T07:33:07.596Z,100.00
2022-11-09T07:35:20.588Z,100.00
2022-11-09T07:37:46.982Z,100.00
2022-11-09T07:40:13.523Z,100.00
2022-11-09T07:42:39.910Z,100.00
2022-11-09T07:45:06.648Z,100.00
2022-11-09T07:47:33.028Z,100.00
2022-11-09T07:49:59.394Z,100.00
2022-11-09T07:52:25.792Z,100.00
2022-11-09T07:54:52.539Z,100.00
2022-11-09T07:57:18.993Z,100.00
2022-11-09T07:59:45.370Z,100.00
2022-11-09T08:02:12.162Z,100.00
2022-11-09T08:04:39.110Z,100.00
2022-11-09T08:07:05.614Z,100.00
2022-11-09T08:09:32.112Z,100.00
2022-11-09T08:11:58.478Z,100.00
2022-11-09T08:14:25.039Z,100.00
2022-11-09T08:16:52.537Z,100.00
2022-11-09T08:19:18.919Z,100.00
2022-11-09T08:21:45.339Z,100.00
2022-11-09T08:24:11.729Z,100.00
2022-11-09T08:26:38.101Z,100.00
2022-11-09T08:29:04.468Z,100.00
2022-11-09T08:31:31.075Z,100.00
2022-11-09T08:33:57.470Z,100.00
2022-11-09T08:36:26.053Z,100.00
2022-11-09T08:38:52.846Z,100.00
2022-11-09T08:41:19.295Z,100.00
2022-11-09T08:43:45.737Z,100.00
2022-11-09T08:46:12.128Z,100.00
2022-11-09T08:48:38.534Z,100.00
2022-11-09T08:51:04.944Z,100.00
2022-11-09T08:53:31.397Z,100.00
2022-11-09T08:55:58.017Z,100.00
2022-11-09T08:58:24.508Z,100.00
2022-11-09T09:00:51.167Z,100.00
2022-11-09T09:03:17.643Z,100.00
2022-11-09T09:05:44.354Z,100.00
2022-11-09T09:08:12.899Z,100.00
2022-11-09T09:10:40.522Z,100.00
2022-11-09T09:13:06.959Z,100.00
2022-11-09T09:15:33.733Z,100.00
2022-11-09T09:18:01.315Z,100.00
2022-11-09T09:20:27.990Z,100.00
2022-11-09T09:22:54.718Z,100.00
2022-11-09T09:25:21.109Z,100.00
2022-11-09T09:27:47.517Z,100.00
2022-11-09T09:30:14.293Z,100.00
2022-11-09T09:32:40.690Z,100.00
2022-11-09T09:35:07.250Z,100.00
2022-11-09T09:37:33.838Z,100.00
2022-11-09T09:40:00.270Z,100.00
2022-11-09T09:42:32.255Z,100.00
2022-11-09T09:45:08.231Z,100.00
2022-11-09T09:47:43.888Z,100.00
2022-11-09T09:50:12.771Z,100.00
2022-11-09T09:52:50.637Z,100.00
2022-11-09T09:55:35.942Z,100.00
2022-11-09T09:58:22.987Z,100.00
2022-11-09T10:00:52.373Z,100.00
2022-11-09T10:03:20.871Z,100.00
2022-11-09T10:05:58.442Z,100.00
2022-11-09T10:08:40.249Z,100.00
2022-11-09T10:11:12.743Z,100.00
2022-11-09T10:13:57.326Z,100.00
2022-11-09T10:16:33.280Z,100.00
2022-11-09T10:19:22.963Z,100.00
2022-11-09T10:21:54.889Z,100.00
2022-11-09T10:24:36.782Z,100.00
2022-11-09T10:27:05.878Z,100.00
2022-11-09T10:29:39.139Z,100.00
2022-11-09T10:32:12.677Z,100.00
2022-11-09T10:34:43.895Z,100.00
2022-11-09T10:37:15.756Z,100.00
2022-11-09T10:39:44.654Z,100.00
2022-11-09T10:42:11.563Z,100.00
2022-11-09T10:44:38.038Z,100.00
2022-11-09T10:47:07.480Z,99.31
2022-11-09T10:49:36.846Z,99.82
2022-11-09T10:52:04.336Z,97.96
2022-11-09T10:54:37.042Z,98.57
2022-11-09T10:57:09.137Z,98.50
2022-11-09T10:59:37.752Z,97.24
2022-11-09T11:02:24.071Z,96.91
2022-11-09T11:04:50.726Z,95.91
2022-11-09T11:07:21.888Z,96.13
2022-11-09T11:09:48.415Z,93.31
2022-11-09T11:12:16.095Z,92.51
2022-11-09T11:14:44.456Z,92.84
2022-11-09T11:17:24.919Z,93.62
2022-11-09T11:19:51.334Z,93.31
2022-11-09T11:22:19.445Z,93.02
2022-11-09T11:24:45.813Z,91.50
2022-11-09T11:27:27.096Z,90.67
2022-11-09T11:29:53.463Z,91.67
2022-11-09T11:32:20.517Z,90.28
2022-11-09T11:35:02.230Z,90.23
2022-11-09T11:37:28.754Z,89.32
2022-11-09T11:40:04.070Z,89.17
2022-11-09T11:42:49.358Z,88.04
2022-11-09T11:45:39.587Z,87.42
2022-11-09T11:48:11.492Z,87.05
2022-11-09T11:50:51.820Z,86.68
2022-11-09T11:53:30.563Z,87.21
2022-11-09T11:56:09.215Z,86.02
2022-11-09T11:58:51.003Z,85.43
2022-11-09T12:01:17.482Z,85.35
2022-11-09T12:04:02.675Z,86.24
2022-11-09T12:06:29.348Z,86.70
2022-11-09T12:08:55.785Z,85.26
2022-11-09T12:11:40.969Z,85.87
2022-11-09T12:14:21.742Z,85.91
2022-11-09T12:17:02.109Z,85.84
2022-11-09T12:19:40.756Z,86.02
2022-11-09T12:22:11.728Z,84.64
2022-11-09T12:24:38.140Z,85.90
2022-11-09T12:30:34.510Z,84.65
2022-11-09T12:33:07.636Z,85.20
2022-11-09T12:35:33.988Z,85.85
2022-11-09T12:38:02.908Z,85.09
2022-11-09T12:40:38.589Z,85.11
2022-11-09T12:43:15.548Z,85.85
2022-11-09T12:45:42.090Z,85.18
2022-11-09T12:48:29.310Z,84.57
2022-11-09T12:50:56.244Z,84.42
2022-11-09T12:53:25.487Z,83.23
2022-11-09T12:55:54.840Z,83.94
2022-11-09T12:58:29.167Z,83.98
2022-11-09T13:00:57.126Z,84.18
2022-11-09T13:03:33.455Z,84.93
2022-11-09T13:06:12.130Z,82.91
2022-11-09T13:08:39.997Z,83.63
2022-11-09T13:11:09.206Z,83.98
2022-11-09T13:13:36.069Z,84.33
2022-11-09T13:16:11.544Z,84.53
2022-11-09T13:18:42.878Z,83.83
2022-11-09T13:21:20.869Z,83.76
2022-11-09T13:24:00.646Z,84.32
2022-11-09T13:26:28.254Z,84.39
2022-11-09T13:29:24.246Z,84.68
2022-11-09T13:32:05.817Z,84.85
2022-11-09T13:34:39.217Z,84.73
2022-11-09T13:37:24.520Z,84.37
2022-11-09T13:39:50.926Z,84.48
2022-11-09T13:42:26.576Z,85.59
2022-11-09T13:44:53.387Z,85.57
2022-11-09T13:47:23.935Z,84.99
2022-11-09T13:49:50.972Z,85.67
2022-11-09T13:52:36.057Z,85.06
2022-11-09T13:55:02.910Z,85.83
2022-11-09T13:57:31.853Z,85.91
2022-11-09T13:59:59.416Z,85.63
2022-11-09T14:02:26.548Z,86.57
2022-11-09T14:04:54.236Z,86.12
2022-11-09T14:07:24.899Z,86.43
2022-11-09T14:10:11.212Z,86.02
2022-11-09T14:12:46.521Z,85.80
2022-11-09T14:15:31.243Z,85.80
2022-11-09T14:18:11.769Z,86.11
2022-11-09T14:20:43.203Z,85.61
2022-11-09T14:23:15.751Z,86.10
2022-11-09T14:25:42.316Z,86.13
2022-11-09T14:28:20.152Z,86.68
2022-11-09T14:30:46.838Z,86.14
2022-11-09T14:33:34.536Z,87.04
2022-11-09T14:36:02.378Z,87.27
2022-11-09T14:38:31.373Z,87.30
2022-11-09T14:40:57.791Z,87.37
2022-11-09T14:43:26.299Z,87.49
2022-11-09T14:45:54.391Z,87.26
2022-11-09T14:48:22.307Z,87.89
2022-11-09T14:50:50.191Z,88.07
2022-11-09T14:53:25.689Z,88.43
2022-11-09T14:55:53.669Z,88.32
2022-11-09T14:58:21.395Z,88.79
2022-11-09T15:01:06.500Z,89.39
2022-11-09T15:03:32.964Z,89.43
2022-11-09T15:06:11.558Z,89.52
2022-11-09T15:08:44.693Z,88.92
2022-11-09T15:11:11.086Z,88.88
2022-11-09T15:13:39.556Z,88.76
2022-11-09T15:16:06.354Z,88.93
2022-11-09T15:18:34.629Z,89.62
2022-11-09T15:21:19.996Z,89.46
2022-11-09T15:23:47.536Z,89.32
2022-11-09T15:26:24.984Z,89.27
2022-11-09T15:28:52.431Z,89.60
2022-11-09T15:31:19.529Z,89.35
2022-11-09T15:33:47.631Z,89.13
2022-11-09T15:36:33.768Z,88.77
2022-11-09T15:39:00.122Z,89.02
2022-11-09T15:41:26.642Z,89.43
2022-11-09T15:43:53.413Z,89.43
2022-11-09T15:46:21.716Z,89.55
2022-11-09T15:48:48.791Z,89.28
2022-11-09T15:51:15.914Z,89.54
2022-11-09T15:53:42.334Z,89.31
2022-11-09T15:56:17.335Z,89.41
2022-11-09T15:58:44.029Z,89.61
2022-11-09T16:01:11.002Z,89.51
2022-11-09T16:03:37.451Z,90.02
2022-11-09T16:06:03.924Z,89.99
2022-11-09T16:08:30.312Z,89.89
2022-11-09T16:10:56.698Z,89.82
2022-11-09T16:13:23.076Z,89.64
2022-11-09T16:15:49.450Z,90.32
2022-11-09T16:18:22.860Z,90.61
2022-11-09T16:20:52.000Z,90.69
2022-11-09T16:23:18.373Z,90.86
2022-11-09T16:25:44.859Z,90.96
2022-11-09T16:28:11.358Z,91.09
2022-11-09T16:30:40.500Z,91.09
2022-11-09T16:33:09.634Z,92.39
2022-11-09T16:35:36.075Z,92.50
2022-11-09T16:38:02.761Z,92.22
2022-11-09T16:40:29.470Z,93.13
2022-11-09T16:42:55.886Z,92.96
2022-11-09T16:45:22.526Z,92.90
2022-11-09T16:47:51.097Z,91.95
2022-11-09T16:50:17.488Z,92.28
2022-11-09T16:52:44.732Z,91.76
2022-11-09T16:55:11.173Z,91.95
2022-11-09T16:57:37.629Z,91.93
2022-11-09T17:00:05.707Z,92.35
2022-11-09T17:02:32.209Z,92.64
2022-11-09T17:04:58.623Z,93.00
2022-11-09T17:07:25.001Z,92.91
2022-11-09T17:09:51.392Z,92.62
2022-11-09T17:12:17.808Z,92.46
2022-11-09T17:14:44.176Z,93.24
2022-11-09T17:17:10.662Z,92.84
2022-11-09T17:19:37.306Z,92.99
2022-11-09T17:22:04.521Z,94.48
2022-11-09T17:24:31.618Z,94.18
2022-11-09T17:26:57.993Z,96.58
2022-11-09T17:29:24.760Z,95.65
2022-11-09T17:31:51.312Z,97.06
2022-11-09T17:34:17.737Z,96.06
2022-11-09T17:39:30.640Z,95.30
2022-11-09T17:41:57.085Z,95.81
2022-11-09T17:44:23.479Z,95.88
2022-11-09T17:46:49.922Z,95.68
2022-11-09T17:49:16.322Z,95.58
2022-11-09T17:51:42.744Z,95.91
2022-11-09T17:54:09.159Z,96.45
2022-11-09T17:56:35.898Z,97.30
2022-11-09T17:59:03.617Z,97.25
2022-11-09T18:01:30.718Z,97.62
2022-11-09T18:03:57.154Z,97.30
2022-11-09T18:06:24.180Z,97.47
2022-11-09T18:09:10.739Z,96.76
2022-11-09T18:11:37.084Z,97.38
2022-11-09T18:14:03.854Z,96.79
2022-11-09T18:16:30.321Z,98.02
2022-11-09T18:19:01.445Z,97.53
2022-11-09T18:21:28.679Z,97.49
2022-11-09T18:23:55.227Z,97.36
2022-11-09T18:26:22.041Z,98.04
2022-11-09T18:28:48.484Z,98.61
2022-11-09T18:31:14.988Z,98.85
2022-11-09T18:33:42.771Z,99.25
2022-11-09T18:36:15.023Z,99.47
2022-11-09T18:38:42.262Z,99.58
2022-11-09T18:41:12.798Z,99.34
2022-11-09T18:43:39.339Z,99.87
2022-11-09T18:46:07.058Z,100.00
2022-11-09T18:48:34.086Z,100.00
2022-11-09T18:51:00.837Z,100.00
2022-11-09T18:53:28.624Z,100.00
2022-11-09T18:56:06.287Z,100.00
2022-11-09T18:58:33.356Z,100.00
2022-11-09T19:01:00.801Z,100.00
2022-11-09T19:03:27.509Z,100.00
2022-11-09T19:05:53.961Z,100.00
2022-11-09T19:08:40.544Z,100.00
2022-11-09T19:11:09.932Z,100.00
2022-11-09T19:13:36.995Z,100.00
2022-11-09T19:16:03.766Z,100.00
2022-11-09T19:18:30.173Z,100.00
2022-11-09T19:20:56.557Z,100.00
2022-11-09T19:23:23.068Z,100.00
2022-11-09T19:25:50.282Z,100.00
2022-11-09T19:28:16.660Z,100.00
2022-11-09T19:30:43.174Z,100.00
2022-11-09T19:33:09.551Z,100.00
2022-11-09T19:35:35.912Z,100.00
2022-11-09T19:38:06.212Z,100.00
2022-11-09T19:40:38.362Z,100.00
2022-11-09T19:43:05.989Z,100.00
2022-11-09T19:45:32.388Z,100.00
2022-11-09T19:47:58.883Z,100.00
2022-11-09T19:50:25.291Z,100.00
2022-11-09T19:52:51.656Z,100.00
2022-11-09T19:55:18.095Z,100.00
2022-11-09T19:57:44.494Z,100.00
2022-11-09T20:00:11.325Z,100.00
2022-11-09T20:02:37.704Z,100.00
2022-11-09T20:05:04.361Z,100.00
2022-11-09T20:07:32.083Z,100.00
2022-11-09T20:09:58.501Z,100.00
2022-11-09T20:12:43.655Z,100.00
2022-11-09T20:15:10.068Z,100.00
2022-11-09T20:17:36.967Z,100.00
2022-11-09T20:20:03.484Z,100.00
2022-11-09T20:22:29.882Z,100.00
2022-11-09T20:24:56.257Z,100.00
2022-11-09T20:27:22.632Z,100.00
2022-11-09T20:29:49.018Z,100.00
2022-11-09T20:32:20.431Z,100.00
2022-11-09T20:34:49.441Z,100.00
2022-11-09T20:37:16.686Z,100.00
2022-11-09T20:39:43.270Z,100.00
2022-11-09T20:42:10.391Z,100.00
2022-11-09T20:44:36.961Z,100.00
2022-11-09T20:47:03.765Z,100.00
2022-11-09T20:49:30.143Z,100.00
2022-11-09T20:51:56.547Z,100.00
2022-11-09T20:54:22.987Z,100.00
2022-11-09T20:56:49.372Z,100.00
2022-11-09T20:59:15.987Z,100.00
2022-11-09T21:01:42.413Z,100.00
2022-11-09T21:04:09.384Z,100.00
2022-11-09T21:06:35.793Z,100.00
2022-11-09T21:09:04.665Z,100.00
2022-11-09T21:11:57.290Z,100.00
2022-11-09T21:14:23.788Z,100.00
2022-11-09T21:16:50.159Z,100.00
2022-11-09T21:19:16.544Z,100.00
2022-11-09T21:21:43.037Z,100.00
2022-11-09T21:24:28.342Z,100.00
2022-11-09T21:27:13.118Z,100.00
2022-11-09T21:29:51.621Z,100.00
2022-11-09T21:32:23.131Z,100.00
2022-11-09T21:34:50.639Z,100.00
2022-11-09T21:37:17.268Z,100.00
2022-11-09T21:39:43.829Z,100.00
2022-11-09T21:42:13.826Z,100.00
2022-11-09T21:44:40.282Z,100.00
2022-11-09T21:47:07.222Z,100.00
2022-11-09T21:49:33.649Z,100.00
2022-11-09T21:52:00.093Z,100.00
2022-11-09T21:54:26.675Z,100.00
2022-11-09T21:56:53.144Z,100.00
2022-11-09T21:59:19.643Z,100.00
2022-11-09T22:01:46.097Z,100.00
2022-11-09T22:04:12.582Z,100.00
2022-11-09T22:06:39.812Z,100.00
2022-11-09T22:09:07.113Z,100.00
2022-11-09T22:11:51.998Z,100.00
2022-11-09T22:14:37.916Z,100.00
2022-11-09T22:17:05.400Z,100.00
2022-11-09T22:19:50.248Z,100.00
2022-11-09T22:22:16.643Z,100.00
2022-11-09T22:24:43.055Z,100.00
2022-11-09T22:27:09.833Z,100.00
2022-11-09T22:29:36.314Z,100.00
2022-11-09T22:32:02.800Z,100.00
2022-11-09T22:34:29.429Z,100.00
2022-11-09T22:36:56.017Z,100.00
2022-11-09T22:39:22.816Z,100.00
2022-11-09T22:41:49.340Z,99.87
2022-11-09T22:44:15.756Z,99.96
2022-11-09T22:46:42.144Z,99.61
2022-11-09T22:49:08.656Z,99.31
2022-11-09T22:51:35.161Z,99.57
2022-11-09T22:54:01.843Z,99.17
2022-11-09T22:56:28.236Z,100.00
2022-11-09T22:58:54.633Z,99.33
2022-11-09T23:01:21.485Z,99.13
2022-11-09T23:03:47.908Z,99.19
2022-11-09T23:06:21.184Z,99.08
2022-11-09T23:08:49.519Z,98.70
2022-11-09T23:11:18.324Z,99.23
2022-11-09T23:13:47.807Z,98.60
2022-11-09T23:16:14.201Z,98.75
2022-11-09T23:18:55.975Z,98.41
2022-11-09T23:21:24.374Z,98.38
2022-11-09T23:23:51.250Z,98.17
2022-11-09T23:26:18.176Z,97.67
2022-11-09T23:28:44.619Z,98.16
2022-11-09T23:31:12.371Z,98.20
2022-11-09T23:33:39.267Z,98.96
2022-11-09T23:36:06.734Z,98.08
2022-11-09T23:38:33.795Z,97.95
2022-11-09T23:41:04.060Z,97.67
2022-11-09T23:43:30.854Z,98.49
2022-11-09T23:46:00.533Z,97.85
2022-11-09T23:48:26.898Z,98.03
2022-11-09T23:50:56.599Z,97.38
2022-11-09T23:53:23.300Z,97.84
2022-11-09T23:55:50.155Z,97.90
2022-11-09T23:58:16.575Z,97.74
